• Join FlightAware (Why Join?)
  • Login
  • US Flag 
12:35AM EDT


 

Airport Tracker/Info


-or-


 

Live Flight TrackerFlight Track Log ✈ SWA620 ✈ 14-Sep-2013 ✈ KATL - KBWI

Flight Track Log - Related Links

Times and Time Zones

All times are in EDT time to prevent confusion due to time zone crossing. See the SWA620 flight status page for this flight to view local times or setup timezone preferences in your user account.

Time Position Orientation Groundspeed Altitude Reporting Facility
EDT Latitude Longitude Course Direction KTS MPH feet Rate Location/Type
08:19AM 33.6500 -84.3500 76° East 201 231 4,400  Level Atlanta TRACON
08:20AM 33.6667 -84.2667 76° East 299 344 7,300 2,100 Climbing Atlanta TRACON
08:22AM 33.7400 -84.0214 70° East 332 382 11,700 2,100 Climbing Atlanta Center
08:23AM 33.7983 -83.9289 53° Northeast 337 388 14,500 2,940 Climbing Atlanta Center
08:24AM 33.8589 -83.8286 54° Northeast 354 407 17,600 2,460 Climbing Atlanta Center
08:25AM 33.9128 -83.7383 54° Northeast 365 420 19,500 2,040 Climbing Atlanta Center
08:26AM 33.9814 -83.6306 52° Northeast 384 442 21,700 2,340 Climbing Atlanta Center
08:27AM 34.0478 -83.5247 53° Northeast 397 457 24,200 2,340 Climbing Atlanta Center
08:28AM 34.1161 -83.4142 53° Northeast 397 457 26,400 2,040 Climbing Atlanta Center
08:29AM 34.1864 -83.3031 53° Northeast 403 464 28,300 1,800 Climbing Atlanta Center
08:30AM 34.2547 -83.1919 53° Northeast 416 479 30,100 1,920 Climbing Atlanta Center
08:31AM 34.3269 -83.0756 53° Northeast 421 484 32,200 2,040 Climbing Atlanta Center
08:32AM 34.4011 -82.9589 52° Northeast 410 472 34,200 1,500 Climbing Atlanta Center
08:33AM 34.4708 -82.8444 54° Northeast 410 472 35,300 1,020 Climbing Atlanta Center
08:34AM 34.5344 -82.7325 55° Northeast 410 472 36,300 840 Climbing Atlanta Center
08:35AM 34.6083 -82.6178 52° Northeast 420 483 37,000 300 Climbing Atlanta Center
08:36AM 34.6822 -82.5106 50° Northeast 420 483 37,000  Level Atlanta Center
08:37AM 34.7517 -82.3931 54° Northeast 420 483 37,000  Level Atlanta Center
08:38AM 34.8211 -82.2803 53° Northeast 414 476 37,000  Level Atlanta Center
08:39AM 34.8903 -82.1675 53° Northeast 414 476 37,000  Level Atlanta Center
08:40AM 34.9514 -82.0672 53° Northeast 414 476 37,000  Level Atlanta Center
08:41AM 35.0225 -81.9489 54° Northeast 414 476 37,000  Level Atlanta Center
08:42AM 35.0892 -81.8278 56° Northeast 414 476 37,000  Level Atlanta Center
08:43AM 35.1536 -81.7042 57° Northeast 424 488 37,000  Level Atlanta Center
08:44AM 35.2181 -81.5803 57° Northeast 424 488 37,000  Level Atlanta Center
08:45AM 35.2822 -81.4564 58° Northeast 429 494 37,000  Level Atlanta Center
08:46AM 35.3503 -81.3294 57° Northeast 429 494 37,000  Level Atlanta Center
08:47AM 35.4122 -81.2000 60° Northeast 435 501 37,000  Level Atlanta Center
08:48AM 35.4800 -81.0703 57° Northeast 441 507 37,000  Level Atlanta Center
08:49AM 35.5497 -80.9400 57° Northeast 448 516 37,000  Level Atlanta Center
08:50AM 35.6153 -80.8150 57° Northeast 442 509 37,000  Level Atlanta Center
08:52AM 35.7303 -80.5917 58° Northeast 452 520 37,000  Level Washington Center
08:53AM 35.7961 -80.4603 58° Northeast 452 520 37,000  Level Washington Center
08:54AM 35.8619 -80.3308 58° Northeast 447 514 37,000  Level Washington Center
08:55AM 35.9297 -80.1992 58° Northeast 447 514 37,000  Level Washington Center
08:56AM 36.0036 -80.0647 56° Northeast 441 507 37,000  Level Washington Center
08:57AM 36.0711 -79.9350 57° Northeast 441 507 37,000  Level Washington Center
08:58AM 36.1422 -79.8128 54° Northeast 441 507 37,000  Level Washington Center
08:59AM 36.2136 -79.6803 56° Northeast 453 521 37,000 -420 Level Washington Center
09:00AM 36.2800 -79.5653 54° Northeast 453 521 36,200 -900 Descending Washington Center
09:01AM 36.3597 -79.4247 55° Northeast 453 521 35,200 -960 Descending Washington Center
09:02AM 36.4219 -79.3064 57° Northeast 453 521 34,300 -1,020 Descending Washington Center
09:03AM 36.4925 -79.1781 56° Northeast 448 516 33,300 -660 Descending Washington Center
09:04AM 36.5758 -79.0397 53° Northeast 448 516 33,000 -1,140 Descending Washington Center
09:05AM 36.6506 -78.9058 55° Northeast 454 522 31,100 -2,040 Descending Washington Center
09:06AM 36.7211 -78.7714 57° Northeast 465 535 29,000 -1,080 Descending Washington Center
09:07AM 36.7889 -78.6472 56° Northeast 453 521 29,000 -300 Level Washington Center
09:08AM 36.8503 -78.5353 56° Northeast 438 504 28,400 -660 Descending Washington Center
09:09AM 36.9156 -78.4183 55° Northeast 428 493 27,700 -900 Descending Washington Center
09:10AM 36.9808 -78.2986 56° Northeast 417 480 26,700 -1,020 Descending Washington Center
09:11AM 37.0664 -78.2078 40° Northeast 411 473 25,700 -1,020 Descending Washington Center
09:12AM 37.1578 -78.1353 32° Northeast 393 452 24,700 -960 Descending Washington Center
09:13AM 37.2508 -78.0628 32° Northeast 393 452 23,800 -900 Descending Washington Center
09:14AM 37.3442 -77.9875 33° Northeast 393 452 23,000 -420 Descending Washington Center
09:15AM 37.4353 -77.9144 32° Northeast 388 447 23,000  Level Washington Center
09:16AM 37.5244 -77.8411 33° Northeast 388 447 23,000  Level Washington Center
09:17AM 37.6175 -77.7706 31° Northeast 388 447 23,000  Level Washington Center
09:18AM 37.7086 -77.6917 34° Northeast 388 447 23,000  Level Washington Center
09:19AM 37.8017 -77.6181 32° Northeast 393 452 23,000  Level Washington Center
09:20AM 37.8947 -77.5417 33° Northeast 393 452 23,000  Level Washington Center
09:21AM 37.9875 -77.4650 33° Northeast 393 452 23,000 -360 Level Washington Center
09:22AM 38.0742 -77.3933 33° Northeast 388 447 22,400 -1,380 Descending Washington Center
09:23AM 38.1608 -77.3242 32° Northeast 377 434 20,300 -2,040 Descending Washington Center
09:24AM 38.2408 -77.2544 34° Northeast 363 418 18,400 -1,860 Descending Washington Center
09:25AM 38.3189 -77.1903 33° Northeast 344 396 16,600 -1,680 Descending Washington Center
09:26AM 38.3950 -77.1228 35° Northeast 337 388 15,100 -1,620 Descending Washington Center
09:27AM 38.4606 -77.0419 44° Northeast 332 382 13,500 -1,560 Descending Washington Center
09:28AM 38.5261 -76.9611 44° Northeast 320 368 12,000 -1,020 Descending Washington Center
09:29AM 38.5875 -76.8906 42° Northeast 304 350 11,500 8,400 Descending Washington Center
09:30AM 38.6508 -76.8064 46° Northeast 299 344 29,000 -1,260 Climbing Washington Center
09:31AM 38.7036 -76.7489 40° Northeast 289 333 9,000 -8,220 Descending Washington Center
09:33AM 38.7833 -76.5833 58° Northeast 282 325 7,100 -1,260 Descending Potomac TRACON
09:34AM 38.8333 -76.5167 46° Northeast 267 307 5,700 -1,440 Descending Potomac TRACON
09:35AM 38.9000 -76.5333 349° North 246 283 4,300 -1,080 Descending Potomac TRACON
09:36AM 38.9500 -76.5500 345° North 217 250 3,600 -840 Descending Potomac TRACON
09:37AM 39.0167 -76.5667 349° North 206 237 2,700 -660 Descending Potomac TRACON
09:38AM 39.0667 -76.5667 360° North 185 213 2,400 -540 Descending Potomac TRACON
09:39AM 39.1000 -76.6000 322° Northwest 159 183 1,700 -720 Descending Potomac TRACON
09:40AM 39.1333 -76.6333 322° Northwest 125 144 1,000 -720 Descending Potomac TRACON
09:42AM 39.1667 -76.6667 339° North  Level FlightAware Approximate
09:49AM 39.1754 -76.6683 339° North  Level Estimated
09:50AM 39.1754 -76.6683 339° North  Level Estimated
09:51AM 39.1754 -76.6683 339° North  Level Estimated
09:52AM 39.1754 -76.6683 339° North  Level Estimated
09:53AM 39.1754 -76.6683 339° North  Level Estimated
09:54AM 39.1754 -76.6683 339° North  Level Estimated